Agency, Iowa
Current Conditions -  °F | °C
As of 11:53 AM on Tuesday 21 Oct 2014 (Local Time) from KOTM Reporting Station
Clear Clear  
Wind Chill: 59°   Ceiling: Unl
Heat Index: 59°   Visibility: 10mi
Dew Point: 44°   Wind: 10mph
Humidity: 58%   Direction: 100°E
Pressure: 30.17"   Gusts: NA
Location:  41°N, 92.31°W
Report Text: KOTM 211653Z AUTO 10009KT 10SM CLR 15/07 A3017 RMK AO2 SLP218 T01500067
Loading
Personal Weather Stations






























Interactive Weather Map
Tropical Storm Tracking
New forecast layout! Learn more

10-Day Weather Forecast

Advertisements
Track Severe Weather on mobile